Time;durP1;ratioP1;P1;durP2;ratioP2;P2;SDS_P1;SDS_P2;PMS_P1;PMS_P2;Temp;Humidity;BMP_temperature;BMP_pressure;BME280_temperature;BME280_humidity;BME280_pressure;Samples;Min_cycle;Max_cycle;Signal;HPM_P1;HPM_P2
2023/06/27 00:00:10;;;;;;;3.27;2.47;;;16.80;99.90;;;;;;5090066;28;20531;-67
2023/06/27 00:02:36;;;;;;;3.33;2.17;;;16.70;99.90;;;;;;5099142;28;20454;-67
2023/06/27 00:05:02;;;;;;;5.33;2.90;;;16.70;99.90;;;;;;5090289;28;20764;-68
2023/06/27 00:07:30;;;;;;;3.80;2.90;;;16.60;99.90;;;;;;5093698;28;20238;-67
2023/06/27 00:09:56;;;;;;;4.33;2.70;;;16.60;99.90;;;;;;5102491;28;20854;-67
2023/06/27 00:12:22;;;;;;;7.93;2.50;;;16.60;99.90;;;;;;5090893;28;20444;-68
2023/06/27 00:14:48;;;;;;;5.87;2.83;;;16.50;99.90;;;;;;5093346;28;20183;-68
2023/06/27 00:17:15;;;;;;;5.17;2.33;;;16.60;99.90;;;;;;5090085;28;20412;-68
2023/06/27 00:19:41;;;;;;;3.40;2.20;;;16.50;99.90;;;;;;5094036;28;20441;-67
2023/06/27 00:22:09;;;;;;;8.57;2.40;;;16.50;99.90;;;;;;5089629;28;20483;-68
2023/06/27 00:24:36;;;;;;;7.93;2.50;;;16.50;99.90;;;;;;5093324;28;20186;-68
2023/06/27 00:27:02;;;;;;;2.50;1.90;;;16.40;99.90;;;;;;5074979;28;20418;-68
2023/06/27 00:29:28;;;;;;;7.93;2.77;;;16.40;99.90;;;;;;5095228;28;21001;-68
2023/06/27 00:31:55;;;;;;;8.53;2.87;;;16.30;99.90;;;;;;5100145;28;20411;-68
2023/06/27 00:34:20;;;;;;;5.60;2.30;;;16.30;99.90;;;;;;5090257;28;20430;-67
2023/06/27 00:36:46;;;;;;;3.27;2.60;;;16.30;99.90;;;;;;5099101;28;20907;-68
2023/06/27 00:39:12;;;;;;;3.40;3.07;;;16.30;99.90;;;;;;5087291;28;20685;-67
2023/06/27 00:41:37;;;;;;;8.30;3.00;;;16.30;99.90;;;;;;5097553;28;20190;-68
2023/06/27 00:44:07;;;;;;;2.83;2.40;;;16.30;99.90;;;;;;5092791;28;20167;-68
2023/06/27 00:46:38;;;;;;;3.67;2.73;;;16.20;99.90;;;;;;5089226;28;20254;-67
2023/06/27 00:49:07;;;;;;;7.77;2.80;;;16.20;99.90;;;;;;5085278;28;20405;-67
2023/06/27 00:51:33;;;;;;;4.37;2.50;;;16.20;99.90;;;;;;5103884;28;20430;-67
2023/06/27 00:53:59;;;;;;;3.53;2.50;;;16.20;99.90;;;;;;5090153;28;20463;-68
2023/06/27 00:56:26;;;;;;;2.60;2.40;;;16.10;99.90;;;;;;5092221;28;20447;-68
2023/06/27 00:58:57;;;;;;;7.17;2.63;;;16.00;99.90;;;;;;5094010;28;20417;-68
2023/06/27 01:01:22;;;;;;;4.93;2.33;;;16.10;99.90;;;;;;5097646;28;20454;-68
2023/06/27 01:03:48;;;;;;;5.10;3.33;;;16.00;99.90;;;;;;5087588;28;20485;-68
2023/06/27 01:06:32;;;;;;;6.10;3.07;;;16.00;99.90;;;;;;5096024;28;20273;-68
2023/06/27 01:09:04;;;;;;;2.73;2.30;;;15.90;99.90;;;;;;5092580;28;20546;-68
2023/06/27 01:11:45;;;;;;;4.37;2.63;;;15.90;99.90;;;;;;5076187;28;20508;-67
2023/06/27 01:14:12;;;;;;;6.40;5.30;;;15.80;99.90;;;;;;5085953;28;20402;-68
2023/06/27 01:16:39;;;;;;;10.30;2.67;;;15.80;99.90;;;;;;5092119;28;20765;-69
2023/06/27 01:19:12;;;;;;;6.63;3.07;;;15.70;99.90;;;;;;5092293;28;20409;-68
2023/06/27 01:21:39;;;;;;;8.67;3.27;;;15.70;99.90;;;;;;5086728;28;20506;-69
2023/06/27 01:24:08;;;;;;;7.00;2.90;;;15.70;99.90;;;;;;5094628;28;20430;-67
2023/06/27 01:26:34;;;;;;;5.10;3.23;;;15.70;99.90;;;;;;5098477;28;20910;-68
2023/06/27 01:29:00;;;;;;;4.63;3.30;;;15.70;99.90;;;;;;5088316;28;20413;-68
2023/06/27 01:31:28;;;;;;;2.80;2.47;;;15.60;99.90;;;;;;5094535;28;20408;-68
2023/06/27 01:34:16;;;;;;;5.67;3.50;;;15.60;99.90;;;;;;5086234;28;20583;-67
2023/06/27 01:36:50;;;;;;;8.00;3.07;;;15.60;99.90;;;;;;5091084;28;20414;-68
2023/06/27 01:39:21;;;;;;;4.60;2.70;;;15.50;99.90;;;;;;5092721;28;20910;-67
2023/06/27 01:41:51;;;;;;;5.90;2.77;;;15.50;99.90;;;;;;5102126;28;20964;-68
2023/06/27 01:44:19;;;;;;;10.53;3.37;;;15.50;99.90;;;;;;5091815;28;20408;-68
2023/06/27 01:46:47;;;;;;;7.90;2.70;;;15.50;99.90;;;;;;5098588;28;20407;-69
2023/06/27 01:49:13;;;;;;;6.93;3.47;;;15.50;99.90;;;;;;5093612;28;20772;-68
2023/06/27 01:51:40;;;;;;;5.23;3.03;;;15.40;99.90;;;;;;5099034;28;20416;-68
2023/06/27 01:54:06;;;;;;;4.60;3.13;;;15.40;99.90;;;;;;5088896;28;20500;-68
2023/06/27 01:56:32;;;;;;;5.57;3.40;;;15.40;99.90;;;;;;5092478;28;20445;-68
2023/06/27 01:58:57;;;;;;;5.80;3.03;;;15.30;99.90;;;;;;5087856;28;20719;-68
2023/06/27 02:01:23;;;;;;;8.50;3.60;;;15.30;99.90;;;;;;5096950;28;20251;-67
2023/06/27 02:03:48;;;;;;;3.93;3.13;;;15.20;99.90;;;;;;5087588;28;20176;-67
2023/06/27 02:06:15;;;;;;;4.77;3.33;;;15.20;99.90;;;;;;5095037;28;20167;-67
2023/06/27 02:08:41;;;;;;;7.93;3.93;;;15.20;99.90;;;;;;5102265;28;20250;-68
2023/06/27 02:11:07;;;;;;;6.67;3.80;;;15.20;99.90;;;;;;5093300;28;20805;-68
2023/06/27 02:13:36;;;;;;;5.10;4.60;;;15.20;99.90;;;;;;5098183;28;20410;-67
2023/06/27 02:16:02;;;;;;;9.53;4.13;;;15.10;99.90;;;;;;5083783;28;20588;-67
2023/06/27 02:18:28;;;;;;;8.60;3.33;;;15.10;99.90;;;;;;5096333;28;20417;-68
2023/06/27 02:20:53;;;;;;;7.07;3.67;;;15.10;99.90;;;;;;5086259;28;20652;-68
2023/06/27 02:23:19;;;;;;;6.50;3.30;;;15.20;99.90;;;;;;5094678;28;20594;-68
2023/06/27 02:25:45;;;;;;;9.40;3.57;;;15.20;99.90;;;;;;5099525;28;20175;-68
2023/06/27 02:28:10;;;;;;;6.33;3.80;;;15.10;99.90;;;;;;5092941;28;20213;-68
2023/06/27 02:30:36;;;;;;;4.63;3.30;;;15.00;99.90;;;;;;5091794;28;20225;-68
2023/06/27 02:33:02;;;;;;;13.33;3.77;;;15.00;99.90;;;;;;5087245;28;20215;-68
2023/06/27 02:35:27;;;;;;;5.93;3.67;;;15.00;99.90;;;;;;5071315;28;20570;-68
2023/06/27 02:37:53;;;;;;;5.20;3.43;;;15.10;99.90;;;;;;5101336;28;20173;-67
2023/06/27 02:40:18;;;;;;;7.03;3.83;;;15.10;99.90;;;;;;5099540;28;20209;-68
2023/06/27 02:42:44;;;;;;;4.90;3.97;;;15.10;99.90;;;;;;5099534;28;20245;-68
2023/06/27 02:45:10;;;;;;;12.43;3.93;;;15.10;99.90;;;;;;5092739;28;20162;-68
2023/06/27 02:47:35;;;;;;;7.30;4.17;;;15.10;99.90;;;;;;5087759;28;20255;-68
2023/06/27 02:50:02;;;;;;;4.50;3.47;;;15.10;99.90;;;;;;5098179;28;20194;-66
2023/06/27 02:52:28;;;;;;;6.97;4.83;;;15.00;99.90;;;;;;5087182;28;20174;-67
2023/06/27 02:54:53;;;;;;;8.50;3.83;;;15.00;99.90;;;;;;5090127;28;20493;-68
2023/06/27 02:57:20;;;;;;;7.37;3.80;;;15.00;99.90;;;;;;5085741;28;20169;-68
2023/06/27 02:59:46;;;;;;;13.43;4.67;;;14.90;99.90;;;;;;5090467;28;20654;-68
2023/06/27 03:02:12;;;;;;;10.80;3.57;;;15.00;99.90;;;;;;5089464;28;20448;-68
2023/06/27 03:04:38;;;;;;;8.13;4.50;;;15.00;99.90;;;;;;5096650;28;20485;-67
2023/06/27 03:07:03;;;;;;;6.60;4.53;;;15.00;99.90;;;;;;5091315;28;20412;-69
2023/06/27 03:09:30;;;;;;;5.03;3.60;;;15.00;99.90;;;;;;5094995;28;20232;-67
2023/06/27 03:11:55;;;;;;;9.10;4.23;;;14.90;99.90;;;;;;5094862;28;20227;-68
2023/06/27 03:14:21;;;;;;;4.73;3.60;;;14.90;99.90;;;;;;5089217;28;20420;-68
2023/06/27 03:16:47;;;;;;;11.53;3.70;;;14.90;99.90;;;;;;5096120;28;20205;-67
2023/06/27 03:19:12;;;;;;;6.23;3.23;;;15.00;99.90;;;;;;5096764;28;20959;-67
2023/06/27 03:21:38;;;;;;;5.30;3.40;;;14.90;99.90;;;;;;5094492;28;20284;-67
2023/06/27 03:24:04;;;;;;;5.30;3.13;;;15.00;99.90;;;;;;5094531;28;20171;-68
2023/06/27 03:26:30;;;;;;;3.80;2.90;;;14.90;99.90;;;;;;5093148;28;20902;-67
2023/06/27 03:28:55;;;;;;;14.43;3.53;;;14.90;99.90;;;;;;5098228;28;20400;-67
2023/06/27 03:31:21;;;;;;;12.63;3.63;;;14.90;99.90;;;;;;5097713;28;20235;-68
2023/06/27 03:33:47;;;;;;;6.53;4.13;;;15.00;99.90;;;;;;5096039;28;20185;-68
2023/06/27 03:36:13;;;;;;;4.90;3.37;;;15.00;99.90;;;;;;5101538;28;20408;-67
2023/06/27 03:38:38;;;;;;;12.50;4.00;;;15.00;99.90;;;;;;5089722;28;20213;-68
2023/06/27 03:41:04;;;;;;;5.07;3.47;;;15.00;99.90;;;;;;5100144;28;20212;-68
2023/06/27 03:43:29;;;;;;;6.33;4.00;;;15.00;99.90;;;;;;5092789;28;20654;-68
2023/06/27 03:45:55;;;;;;;4.20;3.30;;;15.00;99.90;;;;;;5092057;28;20239;-68
2023/06/27 03:48:21;;;;;;;8.80;3.30;;;15.00;99.90;;;;;;5096723;28;20200;-68
2023/06/27 03:50:46;;;;;;;5.70;4.17;;;15.00;99.90;;;;;;5092861;28;20762;-68
2023/06/27 03:53:12;;;;;;;13.73;4.07;;;15.10;99.90;;;;;;5101363;28;20170;-67
2023/06/27 03:55:40;;;;;;;6.93;3.50;;;15.10;99.90;;;;;;5091728;28;20568;-68
2023/06/27 03:58:06;;;;;;;6.03;3.40;;;15.10;99.90;;;;;;5092000;28;20173;-68
2023/06/27 04:00:32;;;;;;;6.93;2.90;;;15.00;99.90;;;;;;5096530;28;20433;-68
2023/06/27 04:02:57;;;;;;;5.43;3.30;;;15.10;99.90;;;;;;5102930;28;21009;-68
2023/06/27 04:05:23;;;;;;;12.87;3.43;;;15.10;99.90;;;;;;5094031;28;20164;-68
2023/06/27 04:07:49;;;;;;;8.63;3.67;;;15.10;99.90;;;;;;5092782;28;20166;-68
2023/06/27 04:10:14;;;;;;;4.83;3.23;;;15.20;99.90;;;;;;5089877;28;20261;-68
2023/06/27 04:12:40;;;;;;;6.13;3.63;;;15.20;99.90;;;;;;5088617;28;20255;-68
2023/06/27 04:15:06;;;;;;;10.17;4.13;;;15.30;99.90;;;;;;5092897;28;20166;-68
2023/06/27 04:17:32;;;;;;;8.10;3.40;;;15.50;99.90;;;;;;5092026;28;20397;-67
2023/06/27 04:19:57;;;;;;;4.67;3.10;;;16.00;99.90;;;;;;5090882;28;20938;-68
2023/06/27 04:22:23;;;;;;;6.03;2.70;;;17.10;99.90;;;;;;5096375;28;20182;-67
2023/06/27 04:24:48;;;;;;;3.83;2.40;;;17.40;99.90;;;;;;5089921;28;20249;-67
2023/06/27 04:27:14;;;;;;;6.20;2.83;;;17.40;99.90;;;;;;5101671;28;20187;-67
2023/06/27 04:29:39;;;;;;;8.77;3.30;;;17.80;99.90;;;;;;5092455;28;20273;-68
2023/06/27 04:32:07;;;;;;;7.30;2.80;;;18.30;99.90;;;;;;5093303;28;20226;-68
2023/06/27 04:34:35;;;;;;;8.67;3.30;;;18.80;99.90;;;;;;5094776;28;20596;-67
2023/06/27 04:37:02;;;;;;;9.97;2.30;;;19.20;99.90;;;;;;5086288;28;20425;-67
2023/06/27 04:39:27;;;;;;;5.37;2.47;;;19.60;99.90;;;;;;5088332;28;20454;-68
2023/06/27 04:41:53;;;;;;;5.67;3.00;;;18.90;99.90;;;;;;5097277;28;20512;-67
2023/06/27 04:44:20;;;;;;;7.97;2.90;;;19.30;99.90;;;;;;5095184;28;20247;-68
2023/06/27 04:46:46;;;;;;;6.70;3.00;;;18.80;99.90;;;;;;5101093;28;20214;-68
2023/06/27 04:49:12;;;;;;;7.13;2.50;;;18.40;99.90;;;;;;5087817;28;20415;-68
2023/06/27 04:51:38;;;;;;;4.40;2.23;;;18.10;99.90;;;;;;5087958;28;20557;-68
2023/06/27 04:54:04;;;;;;;5.90;2.53;;;18.40;99.90;;;;;;5091585;28;20483;-67
2023/06/27 04:56:29;;;;;;;5.47;2.90;;;18.10;99.90;;;;;;5087943;28;20196;-69
2023/06/27 04:58:55;;;;;;;4.50;2.23;;;18.30;99.90;;;;;;5096694;28;20178;-68
2023/06/27 05:01:21;;;;;;;7.17;2.43;;;18.20;99.90;;;;;;5100417;28;20217;-68
2023/06/27 05:03:46;;;;;;;5.13;2.20;;;18.70;99.90;;;;;;5092058;28;20185;-67
2023/06/27 05:06:12;;;;;;;5.00;2.33;;;19.20;99.90;;;;;;5100642;28;20299;-67
2023/06/27 05:08:37;;;;;;;5.30;2.87;;;19.20;99.90;;;;;;5087534;28;20532;-68
2023/06/27 05:11:04;;;;;;;6.43;2.57;;;18.90;99.90;;;;;;5097511;28;20701;-67
2023/06/27 05:13:30;;;;;;;7.47;2.40;;;18.60;99.90;;;;;;5087521;28;20168;-67
2023/06/27 05:15:55;;;;;;;10.43;2.80;;;18.60;99.90;;;;;;5088896;28;20416;-68
2023/06/27 05:18:22;;;;;;;6.50;2.53;;;19.10;99.90;;;;;;5093201;28;20414;-67
2023/06/27 05:20:47;;;;;;;8.33;2.03;;;19.50;99.90;;;;;;5091493;28;20212;-68
2023/06/27 05:23:13;;;;;;;6.73;2.90;;;19.50;99.90;;;;;;5093162;28;20459;-68
2023/06/27 05:25:39;;;;;;;6.73;2.70;;;19.70;99.90;;;;;;5090508;28;20180;-68
2023/06/27 05:28:04;;;;;;;4.63;2.40;;;19.30;99.90;;;;;;5096936;28;20220;-68
2023/06/27 05:30:31;;;;;;;4.93;1.90;;;19.60;99.90;;;;;;5089379;28;20194;-68
2023/06/27 05:32:57;;;;;;;5.23;2.53;;;20.10;99.90;;;;;;5096184;28;20182;-69
2023/06/27 05:35:23;;;;;;;5.30;2.33;;;20.30;99.90;;;;;;5097704;28;20871;-67
2023/06/27 05:37:49;;;;;;;5.63;2.27;;;19.80;99.90;;;;;;5087018;28;20770;-68
2023/06/27 05:40:15;;;;;;;6.60;4.03;;;21.00;99.90;;;;;;5098623;28;20446;-69
2023/06/27 05:42:41;;;;;;;6.40;2.20;;;20.80;99.90;;;;;;5086541;28;20592;-68
2023/06/27 05:45:07;;;;;;;5.00;1.93;;;20.40;99.90;;;;;;5101500;28;20209;-69
2023/06/27 05:47:33;;;;;;;5.17;2.60;;;20.50;99.90;;;;;;5114907;22;20492;-69
2023/06/27 05:49:59;;;;;;;4.87;2.10;;;21.30;99.90;;;;;;5090078;28;20401;-68
2023/06/27 05:52:24;;;;;;;5.27;2.33;;;21.30;99.90;;;;;;5087532;28;20167;-69
2023/06/27 05:54:51;;;;;;;8.30;2.80;;;20.30;99.90;;;;;;5088646;28;20411;-70
2023/06/27 05:57:16;;;;;;;4.37;2.33;;;20.50;99.90;;;;;;5090527;28;20351;-70
2023/06/27 05:59:42;;;;;;;3.80;2.07;;;19.70;99.90;;;;;;5089574;28;20494;-70
2023/06/27 06:02:07;;;;;;;5.10;2.63;;;20.20;99.90;;;;;;5089755;28;20721;-70
2023/06/27 06:04:34;;;;;;;8.93;1.97;;;20.80;99.90;;;;;;5085472;28;20197;-69
2023/06/27 06:07:00;;;;;;;5.23;2.67;;;21.50;99.90;;;;;;5092844;28;20469;-69
2023/06/27 06:09:26;;;;;;;5.77;2.03;;;21.20;99.90;;;;;;5093019;28;20176;-69
2023/06/27 06:11:52;;;;;;;5.83;2.17;;;21.30;99.90;;;;;;5084042;28;20173;-69
2023/06/27 06:14:17;;;;;;;4.63;2.67;;;21.00;99.90;;;;;;5085397;28;20440;-69
2023/06/27 06:16:43;;;;;;;8.27;2.57;;;21.20;99.90;;;;;;5093793;28;20305;-69
2023/06/27 06:19:11;;;;;;;3.50;2.13;;;21.40;99.90;;;;;;5098638;28;20264;-70
2023/06/27 06:21:37;;;;;;;4.93;2.03;;;20.90;99.90;;;;;;5095101;28;20287;-70
2023/06/27 06:24:03;;;;;;;4.00;1.80;;;21.60;99.90;;;;;;5086972;28;20507;-69
2023/06/27 06:26:28;;;;;;;5.00;2.30;;;21.10;99.90;;;;;;5092150;28;20197;-70
2023/06/27 06:28:54;;;;;;;5.27;2.30;;;21.60;99.90;;;;;;5089555;28;21021;-68
2023/06/27 06:31:21;;;;;;;4.40;1.90;;;21.00;99.90;;;;;;5095679;28;20260;-70
2023/06/27 06:33:47;;;;;;;8.87;2.00;;;21.10;99.90;;;;;;5082989;28;20202;-69
2023/06/27 06:36:13;;;;;;;5.10;2.37;;;21.10;99.90;;;;;;5087973;28;20505;-70
2023/06/27 06:38:39;;;;;;;7.77;2.60;;;20.20;99.90;;;;;;5089156;28;20724;-70
2023/06/27 06:41:05;;;;;;;6.37;2.10;;;20.00;99.90;;;;;;5094439;28;20176;-69
2023/06/27 06:43:30;;;;;;;4.73;2.17;;;20.00;99.90;;;;;;5095717;28;20750;-71
2023/06/27 06:45:56;;;;;;;4.47;1.77;;;20.20;99.90;;;;;;5083379;28;20604;-69
2023/06/27 06:48:22;;;;;;;11.33;2.53;;;20.50;99.90;;;;;;5089372;28;20214;-70
2023/06/27 06:50:50;;;;;;;8.10;2.40;;;20.40;99.90;;;;;;5085993;28;20255;-70
2023/06/27 06:53:16;;;;;;;5.97;2.60;;;21.10;99.90;;;;;;5100543;28;20225;-69
2023/06/27 06:55:42;;;;;;;7.23;2.70;;;21.10;99.90;;;;;;5092260;28;20787;-70
2023/06/27 06:58:07;;;;;;;3.97;3.00;;;20.80;99.90;;;;;;5086405;28;20477;-68
2023/06/27 07:00:33;;;;;;;6.77;2.33;;;21.10;99.90;;;;;;5102000;28;20215;-68
2023/06/27 07:02:58;;;;;;;5.60;3.00;;;21.30;99.90;;;;;;5090260;28;20264;-69
2023/06/27 07:05:24;;;;;;;2.63;1.80;;;21.50;99.90;;;;;;5100490;28;20176;-69
2023/06/27 07:07:50;;;;;;;4.50;2.00;;;20.30;99.90;;;;;;5090782;28;20209;-70
2023/06/27 07:10:16;;;;;;;8.80;2.37;;;20.90;99.90;;;;;;5091671;28;20193;-70
2023/06/27 07:12:41;;;;;;;5.07;2.07;;;20.40;99.90;;;;;;5088136;28;20820;-68
2023/06/27 07:15:08;;;;;;;8.30;2.30;;;20.90;99.90;;;;;;5087800;28;20216;-69
2023/06/27 07:17:33;;;;;;;3.40;1.50;;;21.20;99.90;;;;;;5089915;28;20238;-71
2023/06/27 07:20:00;;;;;;;2.03;1.27;;;21.20;99.90;;;;;;5083265;28;20494;-68
2023/06/27 07:22:25;;;;;;;3.47;1.43;;;20.90;99.90;;;;;;5090500;28;20240;-69
2023/06/27 07:24:51;;;;;;;3.23;1.50;;;22.70;99.90;;;;;;5089015;28;20426;-70
2023/06/27 07:27:17;;;;;;;5.07;1.53;;;23.50;99.90;;;;;;5086506;28;20741;-70
2023/06/27 07:29:43;;;;;;;3.07;2.10;;;22.80;99.90;;;;;;5088093;28;20541;-70
2023/06/27 07:32:11;;;;;;;7.43;2.27;;;22.00;99.90;;;;;;5086621;28;20177;-69
2023/06/27 07:34:36;;;;;;;3.40;1.20;;;22.50;99.90;;;;;;5092537;28;20778;-70
2023/06/27 07:37:03;;;;;;;4.13;1.30;;;23.00;99.90;;;;;;5083770;28;20432;-70
2023/06/27 07:39:28;;;;;;;2.60;1.97;;;23.70;99.90;;;;;;5096177;28;20230;-70
2023/06/27 07:41:54;;;;;;;4.50;1.33;;;23.70;99.90;;;;;;5087038;28;20487;-68
2023/06/27 07:44:20;;;;;;;2.47;1.33;;;24.40;99.90;;;;;;5091861;28;20265;-71
2023/06/27 07:46:45;;;;;;;1.90;1.40;;;24.30;99.90;;;;;;5089755;28;20201;-70
2023/06/27 07:49:11;;;;;;;2.10;1.20;;;23.70;99.90;;;;;;5090101;28;20173;-71
2023/06/27 07:51:36;;;;;;;2.87;1.40;;;23.10;99.90;;;;;;5095958;28;20177;-71
2023/06/27 07:54:02;;;;;;;5.37;1.50;;;22.80;99.90;;;;;;5088819;28;20231;-70
2023/06/27 07:56:28;;;;;;;3.90;1.57;;;22.40;99.90;;;;;;5095985;28;20537;-69
2023/06/27 07:58:54;;;;;;;3.40;1.70;;;22.10;99.90;;;;;;5097911;28;20427;-68
2023/06/27 08:01:21;;;;;;;3.77;1.23;;;21.70;99.90;;;;;;5087569;28;20513;-70
2023/06/27 08:03:46;;;;;;;2.53;1.43;;;21.40;99.90;;;;;;5089649;28;20830;-70
2023/06/27 08:06:12;;;;;;;5.10;1.60;;;21.70;99.90;;;;;;5100493;28;20510;-70
2023/06/27 08:08:38;;;;;;;3.17;1.80;;;22.20;99.90;;;;;;5093231;28;20282;-69
2023/06/27 08:11:04;;;;;;;4.30;1.20;;;23.50;99.90;;;;;;5098846;28;20261;-68
2023/06/27 08:13:29;;;;;;;2.50;1.30;;;24.70;99.90;;;;;;5087573;28;20403;-70
2023/06/27 08:15:55;;;;;;;4.33;1.73;;;25.20;99.90;;;;;;5090016;28;20234;-69
2023/06/27 08:18:21;;;;;;;6.90;1.60;;;24.40;99.90;;;;;;5088599;28;20573;-69
2023/06/27 08:20:46;;;;;;;3.10;2.00;;;23.10;99.90;;;;;;5096711;28;20638;-70
2023/06/27 08:23:12;;;;;;;2.87;1.60;;;22.70;99.90;;;;;;5099655;28;20193;-70
2023/06/27 08:25:38;;;;;;;6.70;2.10;;;22.80;99.90;;;;;;5095183;28;20240;-70
2023/06/27 08:28:04;;;;;;;2.40;1.70;;;23.20;99.90;;;;;;5090670;28;20186;-70
2023/06/27 08:30:31;;;;;;;1.80;1.23;;;23.60;99.90;;;;;;5087130;28;20166;-70
2023/06/27 08:32:56;;;;;;;2.63;1.63;;;24.50;99.90;;;;;;5091425;28;20179;-72
2023/06/27 08:35:22;;;;;;;3.40;1.50;;;24.70;99.90;;;;;;5088284;28;20859;-69
2023/06/27 08:37:48;;;;;;;4.37;1.10;;;25.10;99.90;;;;;;5090489;28;20193;-70
2023/06/27 08:40:22;;;;;;;5.27;1.37;;;24.90;99.90;;;;;;5099414;28;20403;-70
2023/06/27 08:42:48;;;;;;;2.67;1.60;;;24.10;99.90;;;;;;5086064;28;20201;-69
2023/06/27 08:45:13;;;;;;;4.30;1.57;;;22.50;99.90;;;;;;5090332;28;20460;-70
2023/06/27 08:47:43;;;;;;;3.53;1.70;;;21.80;99.90;;;;;;5086533;28;20573;-69
2023/06/27 08:50:15;;;;;;;4.50;1.90;;;21.80;99.90;;;;;;5095479;28;20179;-69
2023/06/27 08:52:47;;;;;;;6.80;1.90;;;21.60;99.90;;;;;;5089045;28;20471;-68
2023/06/27 08:55:22;;;;;;;3.60;1.97;;;21.80;99.90;;;;;;5092145;28;21031;-69
2023/06/27 08:57:49;;;;;;;3.77;1.83;;;22.00;99.90;;;;;;5088684;28;20529;-69
2023/06/27 09:00:20;;;;;;;3.07;1.77;;;22.20;99.90;;;;;;5084228;28;20421;-69
2023/06/27 09:02:47;;;;;;;2.80;1.67;;;21.50;99.90;;;;;;5084408;28;20454;-69
2023/06/27 09:05:13;;;;;;;3.10;1.47;;;22.10;99.90;;;;;;5089824;28;20407;-69
2023/06/27 09:07:39;;;;;;;4.50;2.10;;;22.80;99.90;;;;;;5090380;28;20423;-70
2023/06/27 09:10:05;;;;;;;3.20;1.40;;;22.50;99.90;;;;;;5091780;28;20556;-71
2023/06/27 09:12:32;;;;;;;5.13;1.70;;;22.30;99.90;;;;;;5091035;28;20179;-69
2023/06/27 09:14:58;;;;;;;3.00;1.77;;;21.70;99.90;;;;;;5088123;28;20412;-69
2023/06/27 09:17:24;;;;;;;2.10;1.57;;;21.80;99.90;;;;;;5090948;28;20429;-69
2023/06/27 09:19:49;;;;;;;2.10;1.10;;;21.50;99.90;;;;;;5086546;28;20181;-70
2023/06/27 09:22:17;;;;;;;1.83;1.40;;;20.90;99.90;;;;;;5071701;28;20538;-70
2023/06/27 09:24:42;;;;;;;1.57;0.83;;;20.70;99.90;;;;;;5091889;28;20215;-69
2023/06/27 09:27:29;;;;;;;2.00;0.90;;;19.90;99.90;;;;;;5090356;28;20465;-69
2023/06/27 09:29:59;;;;;;;1.73;1.20;;;19.90;99.90;;;;;;5088422;28;20543;-69
2023/06/27 09:32:24;;;;;;;1.67;1.10;;;19.50;99.90;;;;;;5092961;28;20403;-71
2023/06/27 09:34:50;;;;;;;1.97;1.20;;;18.80;99.90;;;;;;5089695;28;20473;-70
2023/06/27 09:37:19;;;;;;;3.20;2.00;;;18.90;99.90;;;;;;5090010;28;20237;-70
2023/06/27 09:39:45;;;;;;;5.13;1.90;;;19.40;99.90;;;;;;5100238;28;20193;-70
2023/06/27 09:42:11;;;;;;;2.53;2.20;;;20.20;99.90;;;;;;5088544;28;20464;-69
2023/06/27 09:44:36;;;;;;;2.90;1.50;;;21.00;99.90;;;;;;5096065;28;20250;-70
2023/06/27 09:47:03;;;;;;;2.60;1.80;;;21.90;99.90;;;;;;5086511;28;20439;-69
2023/06/27 09:49:29;;;;;;;3.60;1.90;;;23.00;99.90;;;;;;5078119;28;20198;-70
2023/06/27 09:51:55;;;;;;;4.23;2.50;;;22.30;99.90;;;;;;5087988;28;20439;-68
2023/06/27 09:54:22;;;;;;;2.50;2.07;;;23.00;99.90;;;;;;5084489;28;20407;-69
2023/06/27 09:56:50;;;;;;;3.33;2.13;;;22.80;99.90;;;;;;5090071;28;20685;-69
2023/06/27 09:59:17;;;;;;;3.57;2.97;;;23.60;99.90;;;;;;5092331;28;20423;-70
2023/06/27 10:01:43;;;;;;;7.77;2.53;;;24.00;99.90;;;;;;5087789;28;20795;-69
2023/06/27 10:04:09;;;;;;;1.90;1.40;;;25.10;99.90;;;;;;5092862;28;20407;-69
2023/06/27 10:06:35;;;;;;;3.33;1.37;;;25.20;99.90;;;;;;5091643;28;20197;-71
2023/06/27 10:09:01;;;;;;;2.30;1.10;;;24.00;99.90;;;;;;5081704;28;20210;-69
2023/06/27 10:11:28;;;;;;;1.63;1.30;;;24.20;99.90;;;;;;5088761;28;20476;-69
2023/06/27 10:13:53;;;;;;;1.93;0.93;;;24.20;99.90;;;;;;5085813;28;20410;-70
2023/06/27 10:16:20;;;;;;;9.07;1.47;;;23.80;99.90;;;;;;5088431;28;20494;-70
2023/06/27 10:18:47;;;;;;;1.60;1.20;;;24.00;99.90;;;;;;5094413;28;20173;-70
2023/06/27 10:21:14;;;;;;;2.10;1.43;;;23.80;99.90;;;;;;5086775;28;20415;-70
2023/06/27 10:23:44;;;;;;;2.40;1.30;;;24.30;99.90;;;;;;5099686;28;20454;-70
2023/06/27 10:26:10;;;;;;;2.20;1.30;;;24.50;99.90;;;;;;5072435;28;20415;-70
2023/06/27 10:28:36;;;;;;;2.60;1.30;;;24.00;99.90;;;;;;5096946;28;20437;-70
2023/06/27 10:31:05;;;;;;;1.87;1.70;;;23.80;99.90;;;;;;5089081;28;20176;-70
2023/06/27 10:33:32;;;;;;;2.20;1.60;;;23.50;99.90;;;;;;5088020;28;20496;-70
2023/06/27 10:36:09;;;;;;;1.70;1.20;;;23.40;99.90;;;;;;5083933;28;20410;-69
2023/06/27 10:38:36;;;;;;;1.97;1.50;;;23.00;99.90;;;;;;5086716;28;20456;-69
2023/06/27 10:41:09;;;;;;;2.00;1.50;;;22.60;99.90;;;;;;5089533;28;20405;-69
2023/06/27 10:43:40;;;;;;;5.63;1.50;;;22.30;99.90;;;;;;5085729;28;20764;-69
2023/06/27 10:46:06;;;;;;;3.83;2.17;;;21.40;99.90;;;;;;5071009;28;20403;-69
2023/06/27 10:48:49;;;;;;;5.50;1.90;;;20.30;99.90;;;;;;5089359;28;20781;-71
2023/06/27 10:51:16;;;;;;;5.30;2.00;;;18.70;99.90;;;;;;5090146;28;20439;-70
2023/06/27 10:53:43;;;;;;;3.30;1.60;;;17.90;99.90;;;;;;5083450;28;20410;-70
2023/06/27 10:56:16;;;;;;;2.20;1.57;;;17.30;99.90;;;;;;5087796;28;20411;-68
2023/06/27 10:58:46;;;;;;;2.00;1.33;;;17.00;99.90;;;;;;5090189;28;20412;-69
2023/06/27 11:01:12;;;;;;;3.17;1.47;;;17.20;99.90;;;;;;5084423;28;20434;-68
2023/06/27 11:03:41;;;;;;;4.70;1.50;;;17.10;99.90;;;;;;5089972;28;20415;-70
2023/06/27 11:06:06;;;;;;;1.37;1.10;;;17.30;99.90;;;;;;5089941;28;20400;-70
2023/06/27 11:08:33;;;;;;;2.23;1.40;;;17.50;99.90;;;;;;5097392;28;20574;-70
2023/06/27 11:10:58;;;;;;;1.80;1.60;;;17.70;99.90;;;;;;5088614;28;20166;-69
2023/06/27 11:13:27;;;;;;;2.37;1.47;;;18.20;99.90;;;;;;5088762;28;20416;-69
2023/06/27 11:15:53;;;;;;;6.57;4.40;;;18.50;99.90;;;;;;5088765;28;20184;-70
2023/06/27 11:18:20;;;;;;;1.93;1.77;;;18.70;99.90;;;;;;5084418;28;20434;-70
2023/06/27 11:20:46;;;;;;;5.70;2.17;;;19.20;99.90;;;;;;5092078;28;20435;-69
2023/06/27 11:23:13;;;;;;;2.07;1.67;;;19.30;99.90;;;;;;5098722;28;20482;-69
2023/06/27 11:25:42;;;;;;;3.30;1.70;;;19.40;99.90;;;;;;5096043;28;20503;-69
2023/06/27 11:28:18;;;;;;;4.20;1.63;;;19.10;99.90;;;;;;5091905;28;20433;-70
2023/06/27 11:30:44;;;;;;;3.60;1.80;;;19.40;99.90;;;;;;5090049;28;20499;-70
2023/06/27 11:33:12;;;;;;;1.90;1.63;;;19.70;99.90;;;;;;5097689;28;20523;-69
2023/06/27 11:35:40;;;;;;;1.67;1.33;;;19.60;99.90;;;;;;5088171;28;20852;-70
2023/06/27 11:38:07;;;;;;;2.33;1.37;;;19.50;99.90;;;;;;5095762;28;20434;-69
2023/06/27 11:40:33;;;;;;;2.03;1.33;;;19.40;99.90;;;;;;5092899;28;20466;-70
2023/06/27 11:43:07;;;;;;;1.83;1.37;;;19.60;99.90;;;;;;5093977;28;20548;-69
2023/06/27 11:45:36;;;;;;;2.70;1.40;;;19.40;99.90;;;;;;5092682;28;20281;-70
2023/06/27 11:48:02;;;;;;;2.53;1.20;;;19.50;99.90;;;;;;5121491;22;20454;-67
2023/06/27 11:50:28;;;;;;;1.20;1.10;;;19.70;99.90;;;;;;5094470;28;20553;-66
2023/06/27 11:52:57;;;;;;;1.97;1.27;;;20.10;99.90;;;;;;5093752;28;20413;-68
2023/06/27 11:55:23;;;;;;;2.73;1.23;;;20.20;99.90;;;;;;5092957;28;20413;-68
2023/06/27 11:57:52;;;;;;;1.93;1.83;;;20.50;99.90;;;;;;5092117;28;20794;-68
2023/06/27 12:00:24;;;;;;;2.17;1.80;;;20.70;99.90;;;;;;5065529;28;20419;-67
2023/06/27 12:02:51;;;;;;;5.30;1.63;;;21.00;99.90;;;;;;5092291;28;20956;-67
2023/06/27 12:05:19;;;;;;;2.50;1.47;;;21.30;99.90;;;;;;5089791;28;20416;-68
2023/06/27 12:08:01;;;;;;;3.23;1.47;;;21.50;99.90;;;;;;5092622;28;20468;-69
2023/06/27 12:10:56;;;;;;;10.27;1.93;;;22.00;99.90;;;;;;5088943;28;20511;-69
2023/06/27 12:13:28;;;;;;;2.10;1.30;;;21.60;99.90;;;;;;5087494;28;20419;-71
2023/06/27 12:15:53;;;;;;;1.43;0.90;;;20.80;99.90;;;;;;5089939;28;20415;-67
2023/06/27 12:18:24;;;;;;;3.13;1.23;;;19.90;99.90;;;;;;5092389;28;20524;-71
2023/06/27 12:20:51;;;;;;;1.67;1.30;;;19.20;99.90;;;;;;5088897;28;20545;-69
2023/06/27 12:23:18;;;;;;;3.43;1.30;;;18.70;99.90;;;;;;5091298;28;20539;-69
2023/06/27 12:25:44;;;;;;;12.23;1.80;;;18.40;99.90;;;;;;5093170;28;20414;-68
2023/06/27 12:28:10;;;;;;;2.70;1.20;;;18.10;99.90;;;;;;5089776;28;20964;-68
2023/06/27 12:30:36;;;;;;;1.13;1.03;;;18.10;99.90;;;;;;5092321;28;20409;-67
2023/06/27 12:33:02;;;;;;;4.07;1.20;;;18.10;99.90;;;;;;5089915;28;20419;-69
2023/06/27 12:35:28;;;;;;;1.20;1.00;;;18.30;99.90;;;;;;5090345;28;20202;-69
2023/06/27 12:37:54;;;;;;;2.90;1.20;;;18.20;99.90;;;;;;5087842;28;20198;-70
2023/06/27 12:40:22;;;;;;;1.40;1.30;;;18.20;99.90;;;;;;5090707;28;20718;-69
2023/06/27 12:42:52;;;;;;;1.87;1.23;;;18.30;99.90;;;;;;5092657;28;20815;-68